Monroe, Iowa
Current Conditions -  °F | °C
As of 7:35 AM on Tuesday 21 Oct 2014 (Local Time) from KPEA Reporting Station
Clear Clear  
Wind Chill: 42°   Ceiling: Unl
Heat Index: 42°   Visibility: 10mi
Dew Point: 39°   Wind: 3mph
Humidity: 90%   Direction: 70°ENE
Pressure: 30.14"   Gusts: NA
Location:  41.52°N, 93.1°W
Report Text: KPEA 211235Z AUTO 07003KT 10SM CLR 06/04 A3014 RMK AO2 T00560041
Loading
Personal Weather Stations






























Interactive Weather Map
Tropical Storm Tracking
New forecast layout! Learn more

10-Day Weather Forecast

Advertisements
Track Severe Weather on mobile